Terminal Aerodrome Forecast
Issued by NWS

Home | Current Version | Previous Version | Graphics & Text | Print | Product List | Glossary On
Versions: 1 2 3 4 5 6 7 8 9 10 11 12 13 14 15
000
FTUS43 KFGF 241100
TAFBJI
TAF
KBJI 241122Z 2412/2512 13009KT P6SM OVC030
      TEMPO 2415/2418 -SHRA BKN020
     FM241800 12014KT P6SM VCSH OVC020
     FM250000 10009KT P6SM OVC010=

USA.gov is the U.S. government's official web portal to all federal, state and local government web resources and services.